sensor_id;sensor_type;location;lat;lon;timestamp;pressure;altitude;pressure_sealevel;temperature;humidity
29121;BME280;16191;49.548;8.658;2023-04-28T00:01:11;100199.19;;;13.11;65.28
29121;BME280;16191;49.548;8.658;2023-04-28T00:03:37;100202.19;;;13.21;65.03
29121;BME280;16191;49.548;8.658;2023-04-28T00:06:04;100208.94;;;13.42;60.98
29121;BME280;16191;49.548;8.658;2023-04-28T00:08:31;100199.88;;;13.48;62.51
29121;BME280;16191;49.548;8.658;2023-04-28T00:10:58;100200.88;;;13.45;64.07
29121;BME280;16191;49.548;8.658;2023-04-28T00:13:26;100199.03;;;13.47;70.73
29121;BME280;16191;49.548;8.658;2023-04-28T00:15:52;100194.41;;;13.52;69.71
29121;BME280;16191;49.548;8.658;2023-04-28T00:18:20;100204.13;;;13.50;70.36
29121;BME280;16191;49.548;8.658;2023-04-28T00:20:47;100204.78;;;13.38;75.94
29121;BME280;16191;49.548;8.658;2023-04-28T00:23:14;100202.88;;;13.24;88.49
29121;BME280;16191;49.548;8.658;2023-04-28T00:25:41;100195.84;;;13.25;89.41
29121;BME280;16191;49.548;8.658;2023-04-28T00:28:07;100187.69;;;13.31;100.00
29121;BME280;16191;49.548;8.658;2023-04-28T00:30:34;100177.28;;;13.29;100.00
29121;BME280;16191;49.548;8.658;2023-04-28T00:33:01;100167.13;;;13.23;100.00
29121;BME280;16191;49.548;8.658;2023-04-28T00:35:27;100172.34;;;13.23;100.00
29121;BME280;16191;49.548;8.658;2023-04-28T00:37:54;100167.38;;;13.19;100.00
29121;BME280;16191;49.548;8.658;2023-04-28T00:40:20;100163.59;;;13.07;100.00
29121;BME280;16191;49.548;8.658;2023-04-28T00:42:47;100152.50;;;13.02;100.00
29121;BME280;16191;49.548;8.658;2023-04-28T00:45:14;100139.59;;;12.99;100.00
29121;BME280;16191;49.548;8.658;2023-04-28T00:47:41;100139.81;;;12.94;100.00
29121;BME280;16191;49.548;8.658;2023-04-28T00:50:08;100130.19;;;12.78;100.00
29121;BME280;16191;49.548;8.658;2023-04-28T00:52:37;100128.00;;;12.70;100.00
29121;BME280;16191;49.548;8.658;2023-04-28T00:55:06;100130.69;;;12.68;100.00
29121;BME280;16191;49.548;8.658;2023-04-28T00:57:33;100119.97;;;12.56;100.00
29121;BME280;16191;49.548;8.658;2023-04-28T00:59:59;100114.53;;;12.43;100.00
29121;BME280;16191;49.548;8.658;2023-04-28T01:02:27;100109.22;;;12.45;100.00
29121;BME280;16191;49.548;8.658;2023-04-28T01:04:56;100111.63;;;12.32;100.00
29121;BME280;16191;49.548;8.658;2023-04-28T01:07:24;100102.84;;;12.33;100.00
29121;BME280;16191;49.548;8.658;2023-04-28T01:09:51;100088.00;;;12.33;100.00
29121;BME280;16191;49.548;8.658;2023-04-28T01:12:23;100084.22;;;12.22;100.00
29121;BME280;16191;49.548;8.658;2023-04-28T01:14:52;100078.91;;;12.23;100.00
29121;BME280;16191;49.548;8.658;2023-04-28T01:17:18;100082.44;;;12.22;100.00
29121;BME280;16191;49.548;8.658;2023-04-28T01:19:45;100074.97;;;12.15;100.00
29121;BME280;16191;49.548;8.658;2023-04-28T01:22:12;100073.19;;;12.15;100.00
29121;BME280;16191;49.548;8.658;2023-04-28T01:24:42;100066.06;;;12.19;100.00
29121;BME280;16191;49.548;8.658;2023-04-28T01:27:11;100058.59;;;12.11;100.00
29121;BME280;16191;49.548;8.658;2023-04-28T01:29:39;100066.34;;;12.13;100.00
29121;BME280;16191;49.548;8.658;2023-04-28T01:32:06;100067.91;;;12.17;100.00
29121;BME280;16191;49.548;8.658;2023-04-28T01:34:33;100066.19;;;12.16;100.00
29121;BME280;16191;49.548;8.658;2023-04-28T01:36:59;100063.34;;;12.20;100.00
29121;BME280;16191;49.548;8.658;2023-04-28T01:39:46;100056.66;;;12.15;100.00
29121;BME280;16191;49.548;8.658;2023-04-28T01:42:32;100063.00;;;12.11;100.00
29121;BME280;16191;49.548;8.658;2023-04-28T01:45:20;100061.03;;;12.14;100.00
29121;BME280;16191;49.548;8.658;2023-04-28T01:48:07;100063.91;;;12.10;100.00
29121;BME280;16191;49.548;8.658;2023-04-28T01:50:53;100064.50;;;12.15;100.00
29121;BME280;16191;49.548;8.658;2023-04-28T01:53:40;100069.81;;;12.13;100.00
29121;BME280;16191;49.548;8.658;2023-04-28T01:56:06;100070.84;;;12.11;100.00
29121;BME280;16191;49.548;8.658;2023-04-28T01:58:33;100075.88;;;12.14;100.00
29121;BME280;16191;49.548;8.658;2023-04-28T02:01:00;100090.84;;;12.12;100.00
29121;BME280;16191;49.548;8.658;2023-04-28T02:03:27;100092.28;;;12.17;100.00
29121;BME280;16191;49.548;8.658;2023-04-28T02:05:54;100093.69;;;12.24;100.00
29121;BME280;16191;49.548;8.658;2023-04-28T02:08:21;100090.69;;;12.32;100.00
29121;BME280;16191;49.548;8.658;2023-04-28T02:10:47;100082.91;;;12.30;100.00
29121;BME280;16191;49.548;8.658;2023-04-28T02:13:14;100060.06;;;12.34;100.00
29121;BME280;16191;49.548;8.658;2023-04-28T02:15:42;100067.22;;;12.30;100.00
29121;BME280;16191;49.548;8.658;2023-04-28T02:18:09;100062.50;;;12.37;100.00
29121;BME280;16191;49.548;8.658;2023-04-28T02:20:38;100065.97;;;12.38;100.00
29121;BME280;16191;49.548;8.658;2023-04-28T02:23:06;100066.72;;;12.40;100.00
29121;BME280;16191;49.548;8.658;2023-04-28T02:25:33;100058.81;;;12.41;100.00
29121;BME280;16191;49.548;8.658;2023-04-28T02:28:00;100063.19;;;12.41;100.00
29121;BME280;16191;49.548;8.658;2023-04-28T02:30:26;100068.44;;;12.41;100.00
29121;BME280;16191;49.548;8.658;2023-04-28T02:32:54;100082.66;;;12.18;100.00
29121;BME280;16191;49.548;8.658;2023-04-28T02:35:21;100080.06;;;12.18;100.00
29121;BME280;16191;49.548;8.658;2023-04-28T02:37:48;100089.50;;;12.03;100.00
29121;BME280;16191;49.548;8.658;2023-04-28T02:40:14;100102.03;;;12.14;100.00
29121;BME280;16191;49.548;8.658;2023-04-28T02:42:41;100109.50;;;12.04;100.00
29121;BME280;16191;49.548;8.658;2023-04-28T02:45:08;100102.16;;;12.12;100.00
29121;BME280;16191;49.548;8.658;2023-04-28T02:47:34;100104.38;;;12.20;100.00
29121;BME280;16191;49.548;8.658;2023-04-28T02:50:01;100109.53;;;12.21;100.00
29121;BME280;16191;49.548;8.658;2023-04-28T02:52:28;100106.84;;;12.23;100.00
29121;BME280;16191;49.548;8.658;2023-04-28T02:54:54;100099.97;;;12.20;100.00
29121;BME280;16191;49.548;8.658;2023-04-28T02:57:23;100096.53;;;12.20;100.00
29121;BME280;16191;49.548;8.658;2023-04-28T02:59:50;100088.13;;;12.13;100.00
29121;BME280;16191;49.548;8.658;2023-04-28T03:02:16;100090.44;;;12.19;100.00
29121;BME280;16191;49.548;8.658;2023-04-28T03:04:43;100089.44;;;12.22;100.00
29121;BME280;16191;49.548;8.658;2023-04-28T03:07:10;100097.59;;;12.16;100.00
29121;BME280;16191;49.548;8.658;2023-04-28T03:09:36;100082.75;;;12.16;100.00
29121;BME280;16191;49.548;8.658;2023-04-28T03:12:03;100077.34;;;12.19;100.00
29121;BME280;16191;49.548;8.658;2023-04-28T03:14:31;100080.19;;;12.15;100.00
29121;BME280;16191;49.548;8.658;2023-04-28T03:16:58;100067.91;;;12.17;100.00
29121;BME280;16191;49.548;8.658;2023-04-28T03:19:24;100075.44;;;12.06;100.00
29121;BME280;16191;49.548;8.658;2023-04-28T03:21:52;100065.13;;;12.02;100.00
29121;BME280;16191;49.548;8.658;2023-04-28T03:24:19;100056.66;;;11.97;100.00
29121;BME280;16191;49.548;8.658;2023-04-28T03:26:48;100053.41;;;11.92;100.00
29121;BME280;16191;49.548;8.658;2023-04-28T03:29:14;100037.81;;;11.91;100.00
29121;BME280;16191;49.548;8.658;2023-04-28T03:31:41;100031.97;;;11.86;100.00
29121;BME280;16191;49.548;8.658;2023-04-28T03:34:08;100023.44;;;11.82;100.00
29121;BME280;16191;49.548;8.658;2023-04-28T03:36:35;100020.91;;;11.81;100.00
29121;BME280;16191;49.548;8.658;2023-04-28T03:39:08;100021.63;;;11.65;100.00
29121;BME280;16191;49.548;8.658;2023-04-28T03:41:35;100025.69;;;11.71;100.00
29121;BME280;16191;49.548;8.658;2023-04-28T03:44:20;100028.16;;;11.74;100.00
29121;BME280;16191;49.548;8.658;2023-04-28T03:46:48;100018.63;;;11.73;100.00
29121;BME280;16191;49.548;8.658;2023-04-28T03:49:15;100014.06;;;11.59;100.00
29121;BME280;16191;49.548;8.658;2023-04-28T03:51:42;100010.53;;;11.60;100.00
29121;BME280;16191;49.548;8.658;2023-04-28T03:54:09;100016.84;;;11.56;100.00
29121;BME280;16191;49.548;8.658;2023-04-28T03:56:36;100011.38;;;11.61;100.00
29121;BME280;16191;49.548;8.658;2023-04-28T03:59:03;100006.13;;;11.44;100.00
29121;BME280;16191;49.548;8.658;2023-04-28T04:01:30;99999.69;;;11.51;100.00
29121;BME280;16191;49.548;8.658;2023-04-28T04:03:56;100003.47;;;11.45;100.00
29121;BME280;16191;49.548;8.658;2023-04-28T04:06:23;100006.22;;;11.59;100.00
29121;BME280;16191;49.548;8.658;2023-04-28T04:08:50;100011.69;;;11.55;100.00
29121;BME280;16191;49.548;8.658;2023-04-28T04:11:16;100016.84;;;11.56;100.00
29121;BME280;16191;49.548;8.658;2023-04-28T04:13:43;100007.22;;;11.57;100.00
29121;BME280;16191;49.548;8.658;2023-04-28T04:16:13;100013.31;;;11.57;100.00
29121;BME280;16191;49.548;8.658;2023-04-28T04:18:41;100020.00;;;11.63;100.00
29121;BME280;16191;49.548;8.658;2023-04-28T04:21:17;100019.09;;;11.64;100.00
29121;BME280;16191;49.548;8.658;2023-04-28T04:23:44;100008.41;;;11.68;100.00
29121;BME280;16191;49.548;8.658;2023-04-28T04:26:11;100009.25;;;11.69;100.00
29121;BME280;16191;49.548;8.658;2023-04-28T04:28:38;100010.31;;;11.65;100.00
29121;BME280;16191;49.548;8.658;2023-04-28T04:31:06;100022.47;;;11.66;100.00
29121;BME280;16191;49.548;8.658;2023-04-28T04:33:34;100020.47;;;11.71;100.00
29121;BME280;16191;49.548;8.658;2023-04-28T04:36:01;100036.97;;;11.54;100.00
29121;BME280;16191;49.548;8.658;2023-04-28T04:38:28;100034.75;;;11.47;100.00
29121;BME280;16191;49.548;8.658;2023-04-28T04:40:55;100039.19;;;11.45;100.00
29121;BME280;16191;49.548;8.658;2023-04-28T04:43:22;100035.66;;;11.46;100.00
29121;BME280;16191;49.548;8.658;2023-04-28T04:45:49;100037.75;;;11.56;100.00
29121;BME280;16191;49.548;8.658;2023-04-28T04:48:16;100031.66;;;11.56;100.00
29121;BME280;16191;49.548;8.658;2023-04-28T04:50:44;100029.06;;;11.56;100.00
29121;BME280;16191;49.548;8.658;2023-04-28T04:53:11;100031.22;;;11.65;100.00
29121;BME280;16191;49.548;8.658;2023-04-28T04:55:42;100033.91;;;11.63;100.00
29121;BME280;16191;49.548;8.658;2023-04-28T04:58:09;100029.31;;;11.68;100.00
29121;BME280;16191;49.548;8.658;2023-04-28T05:00:58;100024.16;;;11.67;100.00
29121;BME280;16191;49.548;8.658;2023-04-28T05:03:25;100026.00;;;11.65;100.00
29121;BME280;16191;49.548;8.658;2023-04-28T05:05:52;100020.00;;;11.63;100.00
29121;BME280;16191;49.548;8.658;2023-04-28T05:08:32;100011.69;;;11.72;100.00
29121;BME280;16191;49.548;8.658;2023-04-28T05:10:58;100009.78;;;11.76;100.00
29121;BME280;16191;49.548;8.658;2023-04-28T05:13:25;100012.47;;;11.74;100.00
29121;BME280;16191;49.548;8.658;2023-04-28T05:15:57;100012.22;;;11.80;100.00
29121;BME280;16191;49.548;8.658;2023-04-28T05:18:33;100007.97;;;11.78;100.00
29121;BME280;16191;49.548;8.658;2023-04-28T05:20:59;100004.28;;;11.82;100.00
29121;BME280;16191;49.548;8.658;2023-04-28T05:23:26;100001.38;;;11.88;100.00
29121;BME280;16191;49.548;8.658;2023-04-28T05:25:53;100008.16;;;11.73;100.00
29121;BME280;16191;49.548;8.658;2023-04-28T05:28:20;100016.47;;;11.64;100.00
29121;BME280;16191;49.548;8.658;2023-04-28T05:30:49;100012.78;;;11.68;100.00
29121;BME280;16191;49.548;8.658;2023-04-28T05:33:15;100017.91;;;11.69;100.00
29121;BME280;16191;49.548;8.658;2023-04-28T05:35:42;100022.75;;;11.79;100.00
29121;BME280;16191;49.548;8.658;2023-04-28T05:38:08;100022.44;;;11.85;100.00
29121;BME280;16191;49.548;8.658;2023-04-28T05:40:35;100025.69;;;11.90;100.00
29121;BME280;16191;49.548;8.658;2023-04-28T05:43:01;100033.13;;;11.97;100.00
29121;BME280;16191;49.548;8.658;2023-04-28T05:45:28;100027.97;;;11.96;100.00
29121;BME280;16191;49.548;8.658;2023-04-28T05:47:56;100032.97;;;12.00;100.00
29121;BME280;16191;49.548;8.658;2023-04-28T05:50:22;100018.91;;;12.03;100.00
29121;BME280;16191;49.548;8.658;2023-04-28T05:52:49;100024.13;;;12.03;100.00
29121;BME280;16191;49.548;8.658;2023-04-28T05:55:16;100044.00;;;12.07;100.00
29121;BME280;16191;49.548;8.658;2023-04-28T05:57:43;100038.75;;;12.07;100.00
29121;BME280;16191;49.548;8.658;2023-04-28T06:00:19;100046.75;;;12.04;100.00
29121;BME280;16191;49.548;8.658;2023-04-28T06:02:47;100051.00;;;12.07;100.00
29121;BME280;16191;49.548;8.658;2023-04-28T06:05:14;100054.59;;;12.04;100.00
29121;BME280;16191;49.548;8.658;2023-04-28T06:07:41;100067.25;;;11.94;100.00
29121;BME280;16191;49.548;8.658;2023-04-28T06:10:08;100079.34;;;11.97;100.00
29121;BME280;16191;49.548;8.658;2023-04-28T06:12:35;100088.59;;;12.04;100.00
29121;BME280;16191;49.548;8.658;2023-04-28T06:15:04;100089.72;;;11.98;100.00
29121;BME280;16191;49.548;8.658;2023-04-28T06:17:31;100095.31;;;11.91;100.00
29121;BME280;16191;49.548;8.658;2023-04-28T06:19:58;100113.63;;;11.91;100.00
29121;BME280;16191;49.548;8.658;2023-04-28T06:22:25;100117.69;;;11.79;100.00
29121;BME280;16191;49.548;8.658;2023-04-28T06:24:52;100117.56;;;11.82;100.00
29121;BME280;16191;49.548;8.658;2023-04-28T06:27:25;100109.72;;;11.82;100.00
29121;BME280;16191;49.548;8.658;2023-04-28T06:29:52;100110.94;;;11.74;100.00
29121;BME280;16191;49.548;8.658;2023-04-28T06:32:18;100104.69;;;11.78;100.00
29121;BME280;16191;49.548;8.658;2023-04-28T06:34:45;100099.31;;;11.81;100.00
29121;BME280;16191;49.548;8.658;2023-04-28T06:37:11;100094.34;;;11.75;100.00
29121;BME280;16191;49.548;8.658;2023-04-28T06:39:38;100095.78;;;11.82;100.00
29121;BME280;16191;49.548;8.658;2023-04-28T06:42:05;100091.25;;;11.85;100.00
29121;BME280;16191;49.548;8.658;2023-04-28T06:44:35;100087.88;;;11.83;100.00
29121;BME280;16191;49.548;8.658;2023-04-28T06:47:02;100094.88;;;11.83;100.00
29121;BME280;16191;49.548;8.658;2023-04-28T06:49:28;100094.16;;;11.79;100.00
29121;BME280;16191;49.548;8.658;2023-04-28T06:51:58;100097.81;;;11.75;100.00
29121;BME280;16191;49.548;8.658;2023-04-28T06:54:28;100103.78;;;11.79;100.00
29121;BME280;16191;49.548;8.658;2023-04-28T06:56:55;100092.59;;;11.75;100.00
29121;BME280;16191;49.548;8.658;2023-04-28T06:59:23;100092.41;;;11.80;100.00
29121;BME280;16191;49.548;8.658;2023-04-28T07:01:49;100097.41;;;11.84;100.00
29121;BME280;16191;49.548;8.658;2023-04-28T07:04:16;100091.69;;;11.76;100.00
29121;BME280;16191;49.548;8.658;2023-04-28T07:06:43;100091.47;;;11.81;100.00
29121;BME280;16191;49.548;8.658;2023-04-28T07:09:10;100093.09;;;11.83;100.00
29121;BME280;16191;49.548;8.658;2023-04-28T07:11:36;100095.09;;;11.78;100.00
29121;BME280;16191;49.548;8.658;2023-04-28T07:14:03;100098.53;;;11.79;100.00
29121;BME280;16191;49.548;8.658;2023-04-28T07:16:30;100089.00;;;11.78;100.00
29121;BME280;16191;49.548;8.658;2023-04-28T07:18:56;100082.78;;;11.80;100.00
29121;BME280;16191;49.548;8.658;2023-04-28T07:21:23;100080.81;;;11.85;100.00
29121;BME280;16191;49.548;8.658;2023-04-28T07:23:49;100084.19;;;11.87;100.00
29121;BME280;16191;49.548;8.658;2023-04-28T07:26:16;100081.50;;;11.89;100.00
29121;BME280;16191;49.548;8.658;2023-04-28T07:28:43;100090.28;;;11.88;100.00
29121;BME280;16191;49.548;8.658;2023-04-28T07:31:10;100096.41;;;11.87;100.00
29121;BME280;16191;49.548;8.658;2023-04-28T07:33:36;100080.72;;;11.87;100.00
29121;BME280;16191;49.548;8.658;2023-04-28T07:36:03;100073.97;;;12.00;100.00
29121;BME280;16191;49.548;8.658;2023-04-28T07:38:33;100085.28;;;12.00;100.00
29121;BME280;16191;49.548;8.658;2023-04-28T07:41:00;100079.34;;;11.97;100.00
29121;BME280;16191;49.548;8.658;2023-04-28T07:43:26;100082.59;;;12.02;100.00
29121;BME280;16191;49.548;8.658;2023-04-28T07:45:53;100074.13;;;11.97;100.00
29121;BME280;16191;49.548;8.658;2023-04-28T07:48:19;100065.69;;;12.09;100.00
29121;BME280;16191;49.548;8.658;2023-04-28T07:50:46;100061.88;;;12.15;100.00
29121;BME280;16191;49.548;8.658;2023-04-28T07:53:13;100062.16;;;12.10;100.00
29121;BME280;16191;49.548;8.658;2023-04-28T07:55:39;100059.53;;;12.10;100.00
29121;BME280;16191;49.548;8.658;2023-04-28T07:58:08;100063.50;;;12.17;100.00
29121;BME280;16191;49.548;8.658;2023-04-28T08:00:34;100067.66;;;12.21;100.00
29121;BME280;16191;49.548;8.658;2023-04-28T08:03:01;100063.69;;;12.31;100.00
29121;BME280;16191;49.548;8.658;2023-04-28T08:05:29;100068.06;;;12.31;100.00
29121;BME280;16191;49.548;8.658;2023-04-28T08:07:58;100065.97;;;12.38;100.00
29121;BME280;16191;49.548;8.658;2023-04-28T08:10:24;100061.28;;;12.44;100.00
29121;BME280;16191;49.548;8.658;2023-04-28T08:12:51;100054.50;;;12.40;100.00
29121;BME280;16191;49.548;8.658;2023-04-28T08:15:19;100070.03;;;12.43;100.00
29121;BME280;16191;49.548;8.658;2023-04-28T08:17:45;100069.13;;;12.44;100.00
29121;BME280;16191;49.548;8.658;2023-04-28T08:20:12;100060.56;;;12.41;100.00
29121;BME280;16191;49.548;8.658;2023-04-28T08:22:41;100067.63;;;12.56;100.00
29121;BME280;16191;49.548;8.658;2023-04-28T08:25:07;100079.47;;;12.63;100.00
29121;BME280;16191;49.548;8.658;2023-04-28T08:27:35;100076.25;;;12.75;100.00
29121;BME280;16191;49.548;8.658;2023-04-28T08:30:03;100070.56;;;12.67;100.00
29121;BME280;16191;49.548;8.658;2023-04-28T08:32:30;100063.91;;;12.77;100.00
29121;BME280;16191;49.548;8.658;2023-04-28T08:34:57;100060.47;;;12.77;100.00
29121;BME280;16191;49.548;8.658;2023-04-28T08:37:23;100062.88;;;12.80;100.00
29121;BME280;16191;49.548;8.658;2023-04-28T08:39:50;100074.81;;;12.85;100.00
29121;BME280;16191;49.548;8.658;2023-04-28T08:42:25;100077.13;;;12.91;100.00
29121;BME280;16191;49.548;8.658;2023-04-28T08:44:55;100072.72;;;12.92;100.00
29121;BME280;16191;49.548;8.658;2023-04-28T08:50:03;100080.50;;;12.93;100.00
29121;BME280;16191;49.548;8.658;2023-04-28T08:52:31;100073.69;;;13.07;100.00
29121;BME280;16191;49.548;8.658;2023-04-28T08:54:59;100068.81;;;13.48;100.00
29121;BME280;16191;49.548;8.658;2023-04-28T08:57:29;100061.88;;;13.47;100.00
29121;BME280;16191;49.548;8.658;2023-04-28T08:59:59;100067.50;;;13.41;100.00
29121;BME280;16191;49.548;8.658;2023-04-28T09:02:25;100060.88;;;13.33;100.00
29121;BME280;16191;49.548;8.658;2023-04-28T09:04:52;100062.53;;;13.66;100.00
29121;BME280;16191;49.548;8.658;2023-04-28T09:07:19;100058.69;;;13.57;100.00
29121;BME280;16191;49.548;8.658;2023-04-28T09:09:46;100056.72;;;13.77;100.00
29121;BME280;16191;49.548;8.658;2023-04-28T09:12:12;100046.72;;;13.83;100.00
29121;BME280;16191;49.548;8.658;2023-04-28T09:14:39;100053.19;;;13.92;100.00
29121;BME280;16191;49.548;8.658;2023-04-28T09:17:13;100057.25;;;13.97;100.00
29121;BME280;16191;49.548;8.658;2023-04-28T09:19:39;100060.91;;;13.95;100.00
29121;BME280;16191;49.548;8.658;2023-04-28T09:22:08;100067.03;;;13.80;100.00
29121;BME280;16191;49.548;8.658;2023-04-28T09:24:51;100064.84;;;13.56;100.00
29121;BME280;16191;49.548;8.658;2023-04-28T09:27:25;100068.56;;;13.52;100.00
29121;BME280;16191;49.548;8.658;2023-04-28T09:29:53;100078.72;;;13.43;100.00
29121;BME280;16191;49.548;8.658;2023-04-28T09:32:21;100069.06;;;13.43;100.00
29121;BME280;16191;49.548;8.658;2023-04-28T09:34:50;100073.75;;;13.38;100.00
29121;BME280;16191;49.548;8.658;2023-04-28T09:37:22;100070.97;;;13.41;100.00
29121;BME280;16191;49.548;8.658;2023-04-28T09:39:50;100073.38;;;13.44;100.00
29121;BME280;16191;49.548;8.658;2023-04-28T09:42:40;100069.75;;;13.47;100.00
29121;BME280;16191;49.548;8.658;2023-04-28T09:45:08;100069.59;;;13.34;100.00
29121;BME280;16191;49.548;8.658;2023-04-28T09:47:36;100077.69;;;13.29;100.00
29121;BME280;16191;49.548;8.658;2023-04-28T09:50:05;100079.00;;;13.38;100.00
29121;BME280;16191;49.548;8.658;2023-04-28T09:52:35;100069.69;;;13.32;100.00
29121;BME280;16191;49.548;8.658;2023-04-28T09:55:03;100083.31;;;13.39;100.00
29121;BME280;16191;49.548;8.658;2023-04-28T09:57:32;100078.91;;;13.55;100.00
29121;BME280;16191;49.548;8.658;2023-04-28T10:00:00;100077.22;;;13.38;100.00
29121;BME280;16191;49.548;8.658;2023-04-28T10:02:33;100072.38;;;13.47;100.00
29121;BME280;16191;49.548;8.658;2023-04-28T10:05:09;100077.78;;;13.44;100.00
29121;BME280;16191;49.548;8.658;2023-04-28T10:07:37;100091.41;;;13.50;100.00
29121;BME280;16191;49.548;8.658;2023-04-28T10:10:06;100085.47;;;13.47;100.00
29121;BME280;16191;49.548;8.658;2023-04-28T10:12:33;100088.25;;;13.44;100.00
29121;BME280;16191;49.548;8.658;2023-04-28T10:15:00;100076.94;;;13.59;100.00
29121;BME280;16191;49.548;8.658;2023-04-28T10:17:27;100081.94;;;13.63;100.00
29121;BME280;16191;49.548;8.658;2023-04-28T10:19:56;100084.28;;;13.68;100.00
29121;BME280;16191;49.548;8.658;2023-04-28T10:27:39;100080.66;;;13.70;100.00
29121;BME280;16191;49.548;8.658;2023-04-28T10:30:20;100082.50;;;13.84;100.00
29121;BME280;16191;49.548;8.658;2023-04-28T10:35:46;100078.28;;;13.82;100.00
29121;BME280;16191;49.548;8.658;2023-04-28T10:38:17;100077.66;;;13.92;100.00
29121;BME280;16191;49.548;8.658;2023-04-28T10:40:51;100083.75;;;13.93;100.00
29121;BME280;16191;49.548;8.658;2023-04-28T10:58:46;100059.31;;;14.36;100.00
29121;BME280;16191;49.548;8.658;2023-04-28T11:06:21;100066.63;;;14.31;100.00
29121;BME280;16191;49.548;8.658;2023-04-28T11:08:55;100059.03;;;14.27;100.00
29121;BME280;16191;49.548;8.658;2023-04-28T11:11:32;100066.53;;;14.33;100.00
29121;BME280;16191;49.548;8.658;2023-04-28T11:16:56;100063.03;;;14.48;100.00
29121;BME280;16191;49.548;8.658;2023-04-28T11:19:28;100056.56;;;14.54;100.00
29121;BME280;16191;49.548;8.658;2023-04-28T11:21:56;100050.28;;;14.56;100.00
29121;BME280;16191;49.548;8.658;2023-04-28T11:24:24;100055.63;;;14.55;100.00
29121;BME280;16191;49.548;8.658;2023-04-28T11:26:51;100054.41;;;14.60;100.00
29121;BME280;16191;49.548;8.658;2023-04-28T11:29:34;100066.69;;;14.60;100.00
29121;BME280;16191;49.548;8.658;2023-04-28T11:32:06;100064.25;;;14.57;100.00
29121;BME280;16191;49.548;8.658;2023-04-28T11:34:33;100060.41;;;14.48;100.00
29121;BME280;16191;49.548;8.658;2023-04-28T11:37:00;100056.00;;;14.49;100.00
29121;BME280;16191;49.548;8.658;2023-04-28T11:39:29;100061.91;;;14.52;100.00
29121;BME280;16191;49.548;8.658;2023-04-28T11:41:57;100058.72;;;14.47;100.00
29121;BME280;16191;49.548;8.658;2023-04-28T11:44:26;100066.22;;;14.53;100.00
29121;BME280;16191;49.548;8.658;2023-04-28T11:46:55;100064.06;;;14.60;100.00
29121;BME280;16191;49.548;8.658;2023-04-28T11:49:23;100064.06;;;14.60;100.00
29121;BME280;16191;49.548;8.658;2023-04-28T11:51:51;100070.84;;;14.64;100.00
29121;BME280;16191;49.548;8.658;2023-04-28T11:54:26;100069.78;;;14.52;100.00
29121;BME280;16191;49.548;8.658;2023-04-28T11:56:54;100076.34;;;14.59;100.00
29121;BME280;16191;49.548;8.658;2023-04-28T11:59:26;100062.75;;;14.53;100.00
29121;BME280;16191;49.548;8.658;2023-04-28T12:01:55;100069.16;;;14.49;100.00
29121;BME280;16191;49.548;8.658;2023-04-28T12:04:35;100066.31;;;14.52;100.00
29121;BME280;16191;49.548;8.658;2023-04-28T12:09:31;100072.63;;;14.49;100.00
29121;BME280;16191;49.548;8.658;2023-04-28T12:12:09;100069.91;;;14.65;100.00
29121;BME280;16191;49.548;8.658;2023-04-28T12:14:57;100079.66;;;14.63;100.00
29121;BME280;16191;49.548;8.658;2023-04-28T12:17:25;100073.19;;;14.68;100.00
29121;BME280;16191;49.548;8.658;2023-04-28T12:19:57;100079.38;;;14.67;100.00
29121;BME280;16191;49.548;8.658;2023-04-28T12:22:24;100079.13;;;14.72;100.00
29121;BME280;16191;49.548;8.658;2023-04-28T12:25:05;100091.84;;;14.64;100.00
29121;BME280;16191;49.548;8.658;2023-04-28T12:27:34;100083.97;;;14.64;100.00
29121;BME280;16191;49.548;8.658;2023-04-28T12:30:23;100069.25;;;14.61;100.00
29121;BME280;16191;49.548;8.658;2023-04-28T12:32:50;100062.13;;;14.78;100.00
29121;BME280;16191;49.548;8.658;2023-04-28T12:35:23;100056.78;;;14.79;100.00
29121;BME280;16191;49.548;8.658;2023-04-28T12:37:51;100061.44;;;14.74;100.00
29121;BME280;16191;49.548;8.658;2023-04-28T12:40:19;100067.75;;;14.71;100.00
29121;BME280;16191;49.548;8.658;2023-04-28T12:42:45;100075.91;;;14.81;100.00
29121;BME280;16191;49.548;8.658;2023-04-28T12:45:12;100086.31;;;14.83;100.00
29121;BME280;16191;49.548;8.658;2023-04-28T12:47:39;100075.91;;;14.81;100.00
29121;BME280;16191;49.548;8.658;2023-04-28T12:50:06;100074.50;;;14.90;100.00
29121;BME280;16191;49.548;8.658;2023-04-28T12:52:33;100086.06;;;14.87;100.00
29121;BME280;16191;49.548;8.658;2023-04-28T12:55:02;100102.75;;;14.72;100.00
29121;BME280;16191;49.548;8.658;2023-04-28T12:57:28;100105.06;;;14.62;100.00
29121;BME280;16191;49.548;8.658;2023-04-28T12:59:56;100095.22;;;14.66;100.00
29121;BME280;16191;49.548;8.658;2023-04-28T13:02:23;100081.44;;;14.77;100.00
29121;BME280;16191;49.548;8.658;2023-04-28T13:04:49;100083.78;;;14.81;100.00
29121;BME280;16191;49.548;8.658;2023-04-28T13:07:17;100094.97;;;14.85;100.00
29121;BME280;16191;49.548;8.658;2023-04-28T13:09:44;100090.91;;;14.79;100.00
29121;BME280;16191;49.548;8.658;2023-04-28T13:12:13;100093.91;;;14.73;100.00
29121;BME280;16191;49.548;8.658;2023-04-28T13:14:40;100080.31;;;14.81;100.00
29121;BME280;16191;49.548;8.658;2023-04-28T13:17:07;100082.31;;;14.91;100.00
29121;BME280;16191;49.548;8.658;2023-04-28T13:19:34;100079.94;;;15.01;100.00
29121;BME280;16191;49.548;8.658;2023-04-28T13:22:01;100080.31;;;15.09;100.00
29121;BME280;16191;49.548;8.658;2023-04-28T13:24:30;100072.41;;;15.23;100.00